Hlavní strana
METAR-TAF:

METAR-TAF

Letiště :

Ngaoundéré, Kamerun

zeměpisná šířka: 07-21N, zeměpisná délka: 013-34E, výška: 1114 m

Aktuální stav počasí

Zpráva byla vytvořena před 7 hodinami a 14 minutami, v 17:00 UTC
Severní vítr 4 kt
Teplota 24°C
Vlhkost vzduchu 50%
Tlak 1014 hPa
Viditelnost 10 km a více
Žádná oblačnost pod 1500 m, nevyskytují se cumulonimby.

METAR: FKKN 071700Z 36004KT CAVOK 24/13 Q1014

Čas: 01:14 (00:14 UTC)


TAF: chybějící

Stav a předpovědi počasí z více než 4 000 letišť (zprávy METAR a TAF).

Červené a žluté tečky na mapě představují dostupné meteorologické stanice.

Když kurzor umístíte na tečku, zobrazí se název stanice.

Pak kliknutím zobrazíte stav a předpověď počasí.

Chcete-li změnit mapu, kliknutím na zelené tlačítko se znaménkem +mapu přiblížíte, kliknutím na zelené tlačítko se znaménkem – mapu oddálíte a kliknutím na zelené šipky přejdete na sousední mapy.


METAR-TAF: